Time,TemperatureF,DewpointF,PressureIn,WindDirection,WindDirectionDegrees,WindSpeedMPH,WindSpeedGustMPH,Humidity,HourlyPrecipIn,Conditions,Clouds,dailyrainin,SoftwareType,DateUTC
2013-04-02 00:00:00,36.7,20.2,29.72,West,270,0.7,2.3,51,0.00,RA,,0.00,WeatherDisplay:10.37,2013-04-02 04:00:00,
2013-04-02 00:05:00,36.3,19.4,29.73,NW,315,1.8,2.3,50,0.00,RA,,0.00,WeatherDisplay:10.37,2013-04-02 04:05:00,
2013-04-02 00:10:00,36.3,19.9,29.73,WSW,248,1.8,3.5,51,0.00,CLR,,0.00,WeatherDisplay:10.37,2013-04-02 04:10:00,
2013-04-02 00:15:00,36.1,20.2,29.73,West,270,1.8,2.3,52,0.00,CLR,,0.00,WeatherDisplay:10.37,2013-04-02 04:15:00,
2013-04-02 00:20:00,36.0,19.6,29.74,WSW,248,0.5,3.5,51,0.00,CLR,,0.00,WeatherDisplay:10.37,2013-04-02 04:20:00,
2013-04-02 00:25:00,35.8,20.7,29.74,WNW,292,0.2,1.1,54,0.00,CLR,,0.00,WeatherDisplay:10.37,2013-04-02 04:25:00,
2013-04-02 00:30:00,35.4,20.8,29.74,WNW,292,1.8,1.8,55,0.00,CLR,,0.00,WeatherDisplay:10.37,2013-04-02 04:30:00,
2013-04-02 00:35:00,35.1,19.2,29.75,SW,225,1.1,1.1,52,0.00,CLR,,0.00,WeatherDisplay:10.37,2013-04-02 04:35:00,
2013-04-02 00:40:00,35.2,19.8,29.75,South,180,0.9,2.3,53,0.00,CLR,,0.00,WeatherDisplay:10.37,2013-04-02 04:40:00,
2013-04-02 00:45:00,35.1,19.2,29.75,NNW,338,3.1,3.1,52,0.00,CLR,,0.00,WeatherDisplay:10.37,2013-04-02 04:45:00,
2013-04-02 00:50:00,35.1,18.3,29.74,WSW,248,0.9,5.8,50,0.00,CLR,,0.00,WeatherDisplay:10.37,2013-04-02 04:50:00,
2013-04-02 00:55:00,35.1,16.8,29.75,NNW,338,5.6,8.1,47,0.00,CLR,,0.00,WeatherDisplay:10.37,2013-04-02 04:55:00,
2013-04-02 01:00:00,35.1,16.3,29.75,WSW,248,1.6,6.9,46,0.00,CLR,,0.00,WeatherDisplay:10.37,2013-04-02 05:00:00,
2013-04-02 01:05:00,35.1,15.8,29.75,NW,315,4.9,5.8,45,0.00,CLR,,0.00,WeatherDisplay:10.37,2013-04-02 05:05:00,
2013-04-02 01:10:00,34.9,16.7,29.75,NNW,338,4.0,5.8,47,0.00,CLR,,0.00,WeatherDisplay:10.37,2013-04-02 05:10:00,
2013-04-02 01:15:00,34.9,16.2,29.75,WNW,292,1.6,4.6,46,0.00,CLR,,0.00,WeatherDisplay:10.37,2013-04-02 05:15:00,
2013-04-02 01:20:00,34.9,16.2,29.75,NNW,338,4.5,4.6,46,0.00,CLR,,0.00,WeatherDisplay:10.37,2013-04-02 05:20:00,
2013-04-02 01:25:00,34.9,16.2,29.76,NW,315,4.9,8.1,46,0.00,CLR,,0.00,WeatherDisplay:10.37,2013-04-02 05:25:00,
2013-04-02 01:30:00,34.7,16.5,29.76,North,0,0.5,6.9,47,0.00,CLR,,0.00,WeatherDisplay:10.37,2013-04-02 05:30:00,
2013-04-02 01:35:00,34.7,16.0,29.77,WSW,248,1.8,4.6,46,0.00,CLR,,0.00,WeatherDisplay:10.37,2013-04-02 05:35:00,
2013-04-02 01:40:00,34.5,15.3,29.76,WNW,292,1.8,6.9,45,0.00,CLR,,0.00,WeatherDisplay:10.37,2013-04-02 05:40:00,
2013-04-02 01:45:00,34.5,16.3,29.76,NW,315,8.5,8.5,47,0.00,CLR,,0.00,WeatherDisplay:10.37,2013-04-02 05:45:00,
2013-04-02 01:50:00,34.3,15.7,29.76,NNW,338,1.8,4.6,46,0.00,CLR,,0.00,WeatherDisplay:10.37,2013-04-02 05:50:00,
2013-04-02 01:55:00,34.2,15.5,29.76,NW,315,2.0,4.6,46,0.00,CLR,,0.00,WeatherDisplay:10.37,2013-04-02 05:55:00,
2013-04-02 02:00:00,34.2,15.5,29.76,West,270,4.3,4.3,46,0.00,CLR,,0.00,WeatherDisplay:10.37,2013-04-02 06:00:00,
2013-04-02 02:05:00,34.2,16.0,29.76,WSW,248,2.2,6.9,47,0.00,CLR,,0.00,WeatherDisplay:10.37,2013-04-02 06:05:00,
2013-04-02 02:10:00,34.0,15.8,29.76,WNW,292,2.4,4.6,47,0.00,CLR,,0.00,WeatherDisplay:10.37,2013-04-02 06:10:00,
2013-04-02 02:15:00,34.0,15.8,29.76,West,270,2.9,3.5,47,0.00,CLR,,0.00,WeatherDisplay:10.37,2013-04-02 06:15:00,
2013-04-02 02:20:00,33.8,16.2,29.76,WNW,292,1.1,2.3,48,0.00,CLR,,0.00,WeatherDisplay:10.37,2013-04-02 06:20:00,
2013-04-02 02:25:00,33.6,15.5,29.76,West,270,0.9,1.1,47,0.00,CLR,,0.00,WeatherDisplay:10.37,2013-04-02 06:25:00,
2013-04-02 02:30:00,33.4,16.3,29.76,SW,225,0.2,1.1,49,0.00,CLR,,0.00,WeatherDisplay:10.37,2013-04-02 06:30:00,
2013-04-02 02:35:00,33.3,16.6,29.77,WNW,292,1.4,2.3,50,0.00,CLR,,0.00,WeatherDisplay:10.37,2013-04-02 06:35:00,
2013-04-02 02:40:00,33.1,16.4,29.77,WNW,292,0.5,1.1,50,0.00,CLR,,0.00,WeatherDisplay:10.37,2013-04-02 06:40:00,
2013-04-02 02:45:00,32.9,16.7,29.77,NW,315,0.2,1.1,51,0.00,CLR,,0.00,WeatherDisplay:10.37,2013-04-02 06:45:00,
2013-04-02 02:50:00,32.7,16.6,29.77,South,180,0.7,1.1,51,0.00,CLR,,0.00,WeatherDisplay:10.37,2013-04-02 06:50:00,
2013-04-02 02:55:00,32.4,15.8,29.77,NW,315,2.9,3.5,50,0.00,CLR,,0.00,WeatherDisplay:10.37,2013-04-02 06:55:00,
2013-04-02 03:00:00,32.5,16.4,29.77,WSW,248,1.8,2.3,51,0.00,CLR,,0.00,WeatherDisplay:10.37,2013-04-02 07:00:00,
2013-04-02 03:05:00,32.5,16.4,29.77,NW,315,0.2,1.1,51,0.00,CLR,,0.00,WeatherDisplay:10.37,2013-04-02 07:05:00,
2013-04-02 03:10:00,32.4,16.2,29.77,WSW,248,0.9,2.3,51,0.00,CLR,,0.00,WeatherDisplay:10.37,2013-04-02 07:10:00,
2013-04-02 03:15:00,32.2,15.6,29.77,NNW,338,1.1,2.3,50,0.00,CLR,,0.00,WeatherDisplay:10.37,2013-04-02 07:15:00,
2013-04-02 03:20:00,32.4,15.3,29.77,WSW,248,0.5,3.5,49,0.00,CLR,,0.00,WeatherDisplay:10.37,2013-04-02 07:20:00,
2013-04-02 03:25:00,32.2,15.6,29.78,WSW,248,1.1,2.3,50,0.00,CLR,,0.00,WeatherDisplay:10.37,2013-04-02 07:25:00,
2013-04-02 03:30:00,32.2,15.1,29.77,WNW,292,3.1,3.5,49,0.00,CLR,,0.00,WeatherDisplay:10.37,2013-04-02 07:30:00,
2013-04-02 03:35:00,32.0,15.4,29.78,NW,315,2.9,2.9,50,0.00,CLR,,0.00,WeatherDisplay:10.37,2013-04-02 07:35:00,
2013-04-02 03:40:00,32.0,14.5,29.78,WNW,292,0.9,1.1,48,0.00,CLR,,0.00,WeatherDisplay:10.37,2013-04-02 07:40:00,
2013-04-02 03:45:00,32.0,15.4,29.78,West,270,0.5,1.1,50,0.00,CLR,,0.00,WeatherDisplay:10.37,2013-04-02 07:45:00,
2013-04-02 03:50:00,31.8,15.7,29.78,WNW,292,1.6,1.6,51,0.00,CLR,,0.00,WeatherDisplay:10.37,2013-04-02 07:50:00,
2013-04-02 03:55:00,31.5,15.4,29.79,NW,315,2.6,4.6,51,0.00,CLR,,0.00,WeatherDisplay:10.37,2013-04-02 07:55:00,
2013-04-02 04:00:00,31.5,15.4,29.79,WSW,248,0.5,1.1,51,0.00,CLR,,0.00,WeatherDisplay:10.37,2013-04-02 08:00:00,
2013-04-02 04:05:00,31.3,15.7,29.79,NNW,338,1.1,2.3,52,0.00,CLR,,0.00,WeatherDisplay:10.37,2013-04-02 08:05:00,
2013-04-02 04:10:00,31.3,15.7,29.79,West,270,1.1,1.1,52,0.00,CLR,,0.00,WeatherDisplay:10.37,2013-04-02 08:10:00,
2013-04-02 04:15:00,31.3,15.7,29.79,WNW,292,1.1,1.1,52,0.00,CLR,,0.00,WeatherDisplay:10.37,2013-04-02 08:15:00,
2013-04-02 04:20:00,31.1,15.5,29.79,WSW,248,1.6,2.3,52,0.00,CLR,,0.00,WeatherDisplay:10.37,2013-04-02 08:20:00,
2013-04-02 04:25:00,30.7,15.2,29.79,WNW,292,1.6,1.6,52,0.00,CLR,,0.00,WeatherDisplay:10.37,2013-04-02 08:25:00,
2013-04-02 04:30:00,30.6,15.0,29.79,WNW,292,0.7,1.1,52,0.00,CLR,,0.00,WeatherDisplay:10.37,2013-04-02 08:30:00,
2013-04-02 04:35:00,30.2,15.1,29.80,WNW,292,0.0,1.1,53,0.00,CLR,,0.00,WeatherDisplay:10.37,2013-04-02 08:35:00,
2013-04-02 04:40:00,30.0,15.4,29.80,West,270,0.0,0.0,54,0.00,CLR,,0.00,WeatherDisplay:10.37,2013-04-02 08:40:00,
2013-04-02 04:45:00,29.8,15.2,29.80,WNW,292,0.5,1.1,54,0.00,CLR,,0.00,WeatherDisplay:10.37,2013-04-02 08:45:00,
2013-04-02 04:50:00,29.5,14.9,29.80,WNW,292,0.0,0.0,54,0.00,CLR,,0.00,WeatherDisplay:10.37,2013-04-02 08:50:00,
2013-04-02 04:55:00,29.3,15.1,29.80,WSW,248,0.0,1.1,55,0.00,CLR,,0.00,WeatherDisplay:10.37,2013-04-02 08:55:00,
2013-04-02 05:00:00,29.3,15.1,29.80,South,180,0.7,1.1,55,0.00,CLR,,0.00,WeatherDisplay:10.37,2013-04-02 09:00:00,
2013-04-02 05:05:00,29.3,15.5,29.80,WNW,292,0.0,1.1,56,0.00,CLR,,0.00,WeatherDisplay:10.37,2013-04-02 09:05:00,
2013-04-02 05:10:00,29.3,15.5,29.80,WNW,292,0.2,0.2,56,0.00,CLR,,0.00,WeatherDisplay:10.37,2013-04-02 09:10:00,
2013-04-02 05:15:00,29.1,15.4,29.81,WNW,292,0.0,0.0,56,0.00,CLR,,0.00,WeatherDisplay:10.37,2013-04-02 09:15:00,
2013-04-02 05:20:00,28.9,15.6,29.81,West,270,0.0,0.0,57,0.00,CLR,,0.00,WeatherDisplay:10.37,2013-04-02 09:20:00,
2013-04-02 05:25:00,28.9,15.6,29.81,SW,225,0.0,0.0,57,0.00,CLR,,0.00,WeatherDisplay:10.37,2013-04-02 09:25:00,
2013-04-02 05:30:00,28.8,15.4,29.81,WSW,248,0.0,0.0,57,0.00,CLR,,0.00,WeatherDisplay:10.37,2013-04-02 09:30:00,
2013-04-02 05:35:00,28.8,15.8,29.82,WSW,248,0.5,0.5,58,0.00,CLR,,0.00,WeatherDisplay:10.37,2013-04-02 09:35:00,
2013-04-02 05:40:00,28.6,15.7,29.82,SW,225,0.0,1.1,58,0.00,CLR,,0.00,WeatherDisplay:10.37,2013-04-02 09:40:00,
2013-04-02 05:45:00,28.6,16.1,29.82,West,270,0.7,1.1,59,0.00,CLR,,0.00,WeatherDisplay:10.37,2013-04-02 09:45:00,
2013-04-02 05:50:00,28.4,15.9,29.81,West,270,0.2,0.2,59,0.00,CLR,,0.00,WeatherDisplay:10.37,2013-04-02 09:50:00,
2013-04-02 05:55:00,28.4,15.9,29.81,West,270,0.0,0.0,59,0.00,CLR,,0.00,WeatherDisplay:10.37,2013-04-02 09:55:00,
2013-04-02 06:00:00,28.4,15.9,29.82,WSW,248,0.0,0.0,59,0.00,CLR,,0.00,WeatherDisplay:10.37,2013-04-02 10:00:00,
2013-04-02 06:05:00,28.2,15.7,29.82,WSW,248,0.0,0.0,59,0.00,CLR,,0.00,WeatherDisplay:10.37,2013-04-02 10:05:00,
2013-04-02 06:10:00,28.0,15.5,29.82,WSW,248,0.0,0.0,59,0.00,CLR,,0.00,WeatherDisplay:10.37,2013-04-02 10:10:00,
2013-04-02 06:15:00,27.9,15.8,29.82,WSW,248,0.0,0.0,60,0.00,CLR,,0.00,WeatherDisplay:10.37,2013-04-02 10:15:00,
2013-04-02 06:20:00,27.7,15.6,29.82,WSW,248,0.0,0.0,60,0.00,CLR,,0.00,WeatherDisplay:10.37,2013-04-02 10:20:00,
2013-04-02 06:25:00,27.7,15.6,29.83,WSW,248,0.0,0.0,60,0.00,CLR,,0.00,WeatherDisplay:10.37,2013-04-02 10:25:00,
2013-04-02 06:30:00,27.7,15.6,29.83,WSW,248,0.5,1.1,60,0.00,CLR,,0.00,WeatherDisplay:10.37,2013-04-02 10:30:00,
2013-04-02 06:35:00,27.5,15.8,29.83,WSW,248,0.0,0.0,61,0.00,CLR,,0.00,WeatherDisplay:10.37,2013-04-02 10:35:00,
2013-04-02 06:40:00,27.5,15.8,29.83,WSW,248,0.2,1.1,61,0.00,CLR,,0.00,WeatherDisplay:10.37,2013-04-02 10:40:00,
2013-04-02 06:45:00,27.7,16.3,29.83,WSW,248,0.5,0.0,62,0.00,CLR,,0.00,WeatherDisplay:10.37,2013-04-02 10:45:00,
2013-04-02 06:50:00,27.7,16.3,29.83,WSW,248,0.0,0.0,62,0.00,CLR,,0.00,WeatherDisplay:10.37,2013-04-02 10:50:00,
2013-04-02 06:55:00,27.9,16.5,29.83,WSW,248,0.0,0.0,62,0.00,CLR,,0.00,WeatherDisplay:10.37,2013-04-02 10:55:00,
2013-04-02 07:00:00,28.0,16.7,29.83,WSW,248,0.5,0.0,62,0.00,CLR,,0.00,WeatherDisplay:10.37,2013-04-02 11:00:00,
2013-04-02 07:05:00,28.4,17.0,29.84,WSW,248,0.0,0.0,62,0.00,CLR,,0.00,WeatherDisplay:10.37,2013-04-02 11:05:00,
2013-04-02 07:10:00,28.8,17.4,29.84,WSW,248,0.7,1.1,62,0.00,CLR,,0.00,WeatherDisplay:10.37,2013-04-02 11:10:00,
2013-04-02 07:15:00,29.1,17.7,29.84,WSW,248,0.5,0.5,62,0.00,CLR,,0.00,WeatherDisplay:10.37,2013-04-02 11:15:00,
2013-04-02 07:20:00,29.5,18.1,29.84,WSW,248,0.5,1.1,62,0.00,CLR,,0.00,WeatherDisplay:10.37,2013-04-02 11:20:00,
2013-04-02 07:25:00,30.0,18.6,29.84,WSW,248,0.0,0.0,62,0.00,CLR,,0.00,WeatherDisplay:10.37,2013-04-02 11:25:00,
2013-04-02 07:30:00,30.6,18.7,29.84,West,270,1.4,2.3,61,0.00,CLR,,0.00,WeatherDisplay:10.37,2013-04-02 11:30:00,
2013-04-02 07:35:00,31.3,18.6,29.85,SW,225,0.5,1.1,59,0.00,CLR,,0.00,WeatherDisplay:10.37,2013-04-02 11:35:00,
2013-04-02 07:40:00,32.0,18.9,29.85,West,270,0.5,1.1,58,0.00,CLR,,0.00,WeatherDisplay:10.37,2013-04-02 11:40:00,
2013-04-02 07:45:00,32.4,18.4,29.85,West,270,1.1,2.3,56,0.00,CLR,,0.00,WeatherDisplay:10.37,2013-04-02 11:45:00,
2013-04-02 07:50:00,32.9,18.9,29.85,WNW,292,0.9,2.3,56,0.00,CLR,,0.00,WeatherDisplay:10.37,2013-04-02 11:50:00,
2013-04-02 07:55:00,33.3,19.2,29.85,SW,225,1.1,1.1,56,0.00,CLR,,0.00,WeatherDisplay:10.37,2013-04-02 11:55:00,
2013-04-02 08:00:00,33.6,19.2,29.85,NNW,338,0.7,1.1,55,0.00,CLR,,0.00,WeatherDisplay:10.37,2013-04-02 12:00:00,
2013-04-02 08:05:00,34.2,19.7,29.85,SSW,202,1.1,2.3,55,0.00,CLR,,0.00,WeatherDisplay:10.37,2013-04-02 12:05:00,
2013-04-02 08:10:00,34.5,19.6,29.85,West,270,3.1,3.1,54,0.00,CLR,,0.00,WeatherDisplay:10.37,2013-04-02 12:10:00,
2013-04-02 08:15:00,34.9,19.0,29.85,West,270,2.9,2.9,52,0.00,CLR,,0.00,WeatherDisplay:10.37,2013-04-02 12:15:00,
2013-04-02 08:20:00,35.1,19.6,29.85,WNW,292,0.7,3.5,53,0.00,CLR,,0.00,WeatherDisplay:10.37,2013-04-02 12:20:00,
2013-04-02 08:25:00,35.6,20.1,29.85,NNW,338,1.8,2.3,53,0.00,CLR,,0.00,WeatherDisplay:10.37,2013-04-02 12:25:00,
2013-04-02 08:30:00,36.0,19.6,29.85,WNW,292,4.5,4.5,51,0.00,CLR,,0.00,WeatherDisplay:10.37,2013-04-02 12:30:00,
2013-04-02 08:35:00,36.1,19.7,29.85,WSW,248,0.7,5.8,51,0.00,CLR,,0.00,WeatherDisplay:10.37,2013-04-02 12:35:00,
2013-04-02 08:40:00,36.3,19.9,29.85,NW,315,1.8,2.3,51,0.00,CLR,,0.00,WeatherDisplay:10.37,2013-04-02 12:40:00,
2013-04-02 08:45:00,36.7,19.8,29.85,SSW,202,2.6,2.6,50,0.00,CLR,,0.00,WeatherDisplay:10.37,2013-04-02 12:45:00,
2013-04-02 08:50:00,37.0,20.1,29.85,SSW,202,2.9,2.9,50,0.00,CLR,,0.00,WeatherDisplay:10.37,2013-04-02 12:50:00,
2013-04-02 08:55:00,37.4,20.4,29.85,NW,315,2.4,2.4,50,0.00,CLR,,0.00,WeatherDisplay:10.37,2013-04-02 12:55:00,
2013-04-02 09:00:00,37.8,20.8,29.85,WSW,248,1.6,4.6,50,0.00,CLR,,0.00,WeatherDisplay:10.37,2013-04-02 13:00:00,
2013-04-02 09:05:00,38.3,20.8,29.85,WSW,248,2.4,2.4,49,0.00,CLR,,0.00,WeatherDisplay:10.37,2013-04-02 13:05:00,
2013-04-02 09:10:00,38.8,21.3,29.85,NNW,338,0.7,2.3,49,0.00,CLR,,0.00,WeatherDisplay:10.37,2013-04-02 13:10:00,
2013-04-02 09:15:00,39.4,21.8,29.85,NW,315,1.8,2.3,49,0.00,CLR,,0.00,WeatherDisplay:10.37,2013-04-02 13:15:00,
2013-04-02 09:20:00,39.7,22.1,29.85,SSW,202,4.0,4.0,49,0.00,CLR,,0.00,WeatherDisplay:10.37,2013-04-02 13:20:00,
2013-04-02 09:25:00,40.1,21.5,29.85,SW,225,6.9,6.9,47,0.00,CLR,,0.00,WeatherDisplay:10.37,2013-04-02 13:25:00,
2013-04-02 09:30:00,39.7,21.6,29.85,North,0,1.8,4.6,48,0.00,CLR,,0.00,WeatherDisplay:10.37,2013-04-02 13:30:00,
2013-04-02 09:35:00,39.2,20.6,29.85,NW,315,0.5,1.1,47,0.00,CLR,,0.00,WeatherDisplay:10.37,2013-04-02 13:35:00,
2013-04-02 09:40:00,39.4,20.8,29.85,SW,225,2.6,3.5,47,0.00,CLR,,0.00,WeatherDisplay:10.37,2013-04-02 13:40:00,
2013-04-02 09:45:00,39.6,21.0,29.85,NNW,338,4.7,4.7,47,0.00,CLR,,0.00,WeatherDisplay:10.37,2013-04-02 13:45:00,
2013-04-02 09:50:00,39.4,20.3,29.85,WNW,292,1.8,4.6,46,0.00,CLR,,0.00,WeatherDisplay:10.37,2013-04-02 13:50:00,
2013-04-02 09:55:00,39.0,20.0,29.85,WSW,248,1.1,2.3,46,0.00,CLR,,0.00,WeatherDisplay:10.37,2013-04-02 13:55:00,
2013-04-02 10:00:00,39.4,21.8,29.84,SSW,202,4.0,6.9,49,0.00,CLR,,0.00,WeatherDisplay:10.37,2013-04-02 14:00:00,
2013-04-02 10:05:00,40.3,22.1,29.85,NW,315,3.3,5.8,48,0.00,CLR,,0.00,WeatherDisplay:10.37,2013-04-02 14:05:00,
2013-04-02 10:10:00,40.6,22.0,29.85,SSE,158,1.4,4.6,47,0.00,CLR,,0.00,WeatherDisplay:10.37,2013-04-02 14:10:00,
2013-04-02 10:15:00,40.5,21.8,29.84,South,180,4.7,4.7,47,0.00,CLR,,0.00,WeatherDisplay:10.37,2013-04-02 14:15:00,
2013-04-02 10:20:00,40.1,21.0,29.84,NNW,338,2.4,2.4,46,0.00,CLR,,0.00,WeatherDisplay:10.37,2013-04-02 14:20:00,
2013-04-02 10:25:00,39.9,21.8,29.84,SW,225,3.6,5.8,48,0.00,CLR,,0.00,WeatherDisplay:10.37,2013-04-02 14:25:00,
2013-04-02 10:30:00,40.8,22.6,29.84,West,270,2.2,4.6,48,0.00,CLR,,0.00,WeatherDisplay:10.37,2013-04-02 14:30:00,
2013-04-02 10:35:00,41.5,22.3,29.84,SSW,202,0.5,4.6,46,0.00,CLR,,0.00,WeatherDisplay:10.37,2013-04-02 14:35:00,
2013-04-02 10:40:00,42.1,22.2,29.84,SSW,202,9.9,9.9,45,0.00,CLR,,0.00,WeatherDisplay:10.37,2013-04-02 14:40:00,
2013-04-02 10:45:00,42.4,20.9,29.85,North,0,2.6,4.6,42,0.00,CLR,,0.00,WeatherDisplay:10.37,2013-04-02 14:45:00,
2013-04-02 10:50:00,42.1,20.6,29.84,NNW,338,3.1,4.6,42,0.00,CLR,,0.00,WeatherDisplay:10.37,2013-04-02 14:50:00,
2013-04-02 10:55:00,42.1,20.6,29.84,WSW,248,4.0,4.0,42,0.00,CLR,,0.00,WeatherDisplay:10.37,2013-04-02 14:55:00,
2013-04-02 11:00:00,41.7,20.3,29.84,West,270,2.4,2.4,42,0.00,CLR,,0.00,WeatherDisplay:10.37,2013-04-02 15:00:00,
2013-04-02 11:05:00,42.3,20.2,29.84,NNW,338,4.0,4.0,41,0.00,CLR,,0.00,WeatherDisplay:10.37,2013-04-02 15:05:00,
2013-04-02 11:10:00,42.8,20.1,29.84,South,180,3.3,3.3,40,0.00,CLR,,0.00,WeatherDisplay:10.37,2013-04-02 15:10:00,
2013-04-02 11:15:00,42.8,20.7,29.84,West,270,7.1,7.1,41,0.00,CLR,,0.00,WeatherDisplay:10.37,2013-04-02 15:15:00,
2013-04-02 11:20:00,43.7,22.6,29.84,North,0,2.0,8.1,43,0.00,CLR,,0.00,WeatherDisplay:10.37,2013-04-02 15:20:00,
2013-04-02 11:25:00,44.4,22.7,29.84,SW,225,6.2,6.2,42,0.00,CLR,,0.00,WeatherDisplay:10.37,2013-04-02 15:25:00,
2013-04-02 11:30:00,44.6,22.3,29.83,SW,225,4.7,4.7,41,0.00,CLR,,0.00,WeatherDisplay:10.37,2013-04-02 15:30:00,
2013-04-02 11:35:00,44.6,21.7,29.83,NNW,338,1.4,8.1,40,0.00,CLR,,0.00,WeatherDisplay:10.37,2013-04-02 15:35:00,
2013-04-02 11:40:00,44.6,21.7,29.83,SW,225,4.9,4.9,40,0.00,CLR,,0.00,WeatherDisplay:10.37,2013-04-02 15:40:00,
2013-04-02 11:45:00,44.2,20.8,29.83,NW,315,2.6,2.6,39,0.00,CLR,,0.00,WeatherDisplay:10.37,2013-04-02 15:45:00,
2013-04-02 11:51:00,44.2,19.6,29.83,WNW,292,2.4,8.1,37,0.00,CLR,,0.00,WeatherDisplay:10.37,2013-04-02 15:51:00,
2013-04-02 11:56:00,44.6,20.5,29.82,West,270,1.1,5.8,38,0.00,CLR,,0.00,WeatherDisplay:10.37,2013-04-02 15:56:00,
2013-04-02 12:02:00,44.8,20.7,29.82,SSW,202,2.9,2.9,38,0.00,CLR,,0.00,WeatherDisplay:10.37,2013-04-02 16:02:00,
2013-04-02 12:07:00,44.8,21.3,29.82,SW,225,5.4,6.9,39,0.00,CLR,,0.00,WeatherDisplay:10.37,2013-04-02 16:07:00,
2013-04-02 12:12:00,45.1,21.6,29.82,NW,315,4.0,4.6,39,0.00,CLR,,0.00,WeatherDisplay:10.37,2013-04-02 16:12:00,
2013-04-02 12:17:00,45.0,20.2,29.82,West,270,2.6,2.6,37,0.00,CLR,,0.00,WeatherDisplay:10.37,2013-04-02 16:17:00,
2013-04-02 12:23:00,45.5,23.1,29.82,SW,225,8.3,8.3,41,0.00,CLR,,0.00,WeatherDisplay:10.37,2013-04-02 16:23:00,
2013-04-02 12:28:00,45.9,21.7,29.82,SW,225,8.3,8.3,38,0.00,CLR,,0.00,WeatherDisplay:10.37,2013-04-02 16:28:00,
2013-04-02 12:33:00,46.0,20.5,29.81,SW,225,4.0,4.6,36,0.00,CLR,,0.00,WeatherDisplay:10.37,2013-04-02 16:33:00,
2013-04-02 12:38:00,45.7,20.9,29.81,West,270,1.1,4.6,37,0.00,CLR,,0.00,WeatherDisplay:10.37,2013-04-02 16:38:00,
2013-04-02 12:43:00,45.5,20.7,29.81,NW,315,2.6,2.6,37,0.00,CLR,,0.00,WeatherDisplay:10.37,2013-04-02 16:43:00,
2013-04-02 12:48:00,45.7,20.9,29.81,WSW,248,4.9,4.9,37,0.00,CLR,,0.00,WeatherDisplay:10.37,2013-04-02 16:48:00,
2013-04-02 12:53:00,45.3,20.5,29.81,WSW,248,4.9,4.9,37,0.00,CLR,,0.00,WeatherDisplay:10.37,2013-04-02 16:53:00,
2013-04-02 12:58:00,44.4,21.0,29.81,SW,225,7.6,8.1,39,0.00,CLR,,0.00,WeatherDisplay:10.37,2013-04-02 16:58:00,
2013-04-02 13:04:00,44.1,20.7,29.80,South,180,2.0,8.1,39,0.00,CLR,,0.00,WeatherDisplay:10.37,2013-04-02 17:04:00,
2013-04-02 13:09:00,43.7,19.7,29.81,WNW,292,1.6,2.3,38,0.00,CLR,,0.00,WeatherDisplay:10.37,2013-04-02 17:09:00,
2013-04-02 13:14:00,43.5,20.2,29.80,WNW,292,1.6,1.6,39,0.00,CLR,,0.00,WeatherDisplay:10.37,2013-04-02 17:14:00,
2013-04-02 13:19:00,43.5,20.8,29.80,North,0,2.4,2.4,40,0.00,CLR,,0.00,WeatherDisplay:10.37,2013-04-02 17:19:00,
2013-04-02 13:24:00,43.5,20.8,29.80,North,0,2.4,2.4,40,0.00,CLR,,0.00,WeatherDisplay:10.37,2013-04-02 17:24:00,
2013-04-02 13:29:00,44.2,21.4,29.80,West,270,3.8,3.8,40,0.00,CLR,,0.00,WeatherDisplay:10.37,2013-04-02 17:29:00,
2013-04-02 13:34:00,45.3,23.0,29.80,WSW,248,6.0,6.0,41,0.00,CLR,,0.00,WeatherDisplay:10.37,2013-04-02 17:34:00,
2013-04-02 13:39:00,44.4,22.7,29.80,WSW,248,6.0,6.0,42,0.00,CLR,,0.00,WeatherDisplay:10.37,2013-04-02 17:39:00,
2013-04-02 13:44:00,43.7,22.1,29.80,WSW,248,6.0,6.0,42,0.00,CLR,,0.00,WeatherDisplay:10.37,2013-04-02 17:44:00,
2013-04-02 13:49:00,43.2,22.1,29.80,WSW,248,6.0,6.0,43,0.00,CLR,,0.00,WeatherDisplay:10.37,2013-04-02 17:49:00,
2013-04-02 13:55:00,42.8,21.3,29.80,WSW,248,6.0,6.0,42,0.00,CLR,,0.00,WeatherDisplay:10.37,2013-04-02 17:55:00,
2013-04-02 14:00:00,43.2,22.1,29.80,WSW,248,6.0,6.0,43,0.00,CLR,,0.00,WeatherDisplay:10.37,2013-04-02 18:00:00,
2013-04-02 14:06:00,43.9,22.2,29.80,WSW,248,6.0,6.0,42,0.00,CLR,,0.00,WeatherDisplay:10.37,2013-04-02 18:06:00,
2013-04-02 14:12:00,44.2,22.6,29.80,WSW,248,6.0,6.0,42,0.00,CLR,,0.00,WeatherDisplay:10.37,2013-04-02 18:12:00,
2013-04-02 14:17:00,44.1,21.8,29.79,WSW,248,6.0,6.0,41,0.00,CLR,,0.00,WeatherDisplay:10.37,2013-04-02 18:17:00,
2013-04-02 14:22:00,44.6,21.7,29.79,WSW,248,6.0,6.0,40,0.00,CLR,,0.00,WeatherDisplay:10.37,2013-04-02 18:22:00,
2013-04-02 14:27:00,45.0,22.1,29.79,WSW,248,6.0,6.0,40,0.00,CLR,,0.00,WeatherDisplay:10.37,2013-04-02 18:27:00,
2013-04-02 14:32:00,44.8,22.5,29.79,WSW,248,6.0,6.0,41,0.00,CLR,,0.00,WeatherDisplay:10.37,2013-04-02 18:32:00,
2013-04-02 14:37:00,44.2,22.6,29.79,WSW,248,6.0,6.0,42,0.00,CLR,,0.00,WeatherDisplay:10.37,2013-04-02 18:37:00,
2013-04-02 14:42:00,45.1,22.2,29.79,WSW,248,6.0,6.0,40,0.00,CLR,,0.00,WeatherDisplay:10.37,2013-04-02 18:42:00,
2013-04-02 14:47:00,45.3,22.4,29.79,WSW,248,6.0,6.0,40,0.00,CLR,,0.00,WeatherDisplay:10.37,2013-04-02 18:47:00,
2013-04-02 14:52:00,45.7,22.7,29.79,WSW,248,6.0,6.0,40,0.00,CLR,,0.00,WeatherDisplay:10.37,2013-04-02 18:52:00,
2013-04-02 14:58:00,45.7,22.1,29.79,NW,315,4.0,4.6,39,0.00,CLR,,0.00,WeatherDisplay:10.37,2013-04-02 18:58:00,
2013-04-02 15:03:00,44.6,20.5,29.79,West,270,4.7,4.7,38,0.00,CLR,,0.00,WeatherDisplay:10.37,2013-04-02 19:03:00,
2013-04-02 15:08:00,44.4,21.0,29.78,WNW,292,1.8,1.8,39,0.00,CLR,,0.00,WeatherDisplay:10.37,2013-04-02 19:08:00,
2013-04-02 15:13:00,44.6,21.7,29.78,WNW,292,1.8,2.3,40,0.00,CLR,,0.00,WeatherDisplay:10.37,2013-04-02 19:13:00,
2013-04-02 15:18:00,45.3,22.4,29.78,WNW,292,2.2,11.5,40,0.00,CLR,,0.00,WeatherDisplay:10.37,2013-04-02 19:18:00,
2013-04-02 15:24:00,45.1,21.6,29.78,WNW,292,2.2,2.3,39,0.00,CLR,,0.00,WeatherDisplay:10.37,2013-04-02 19:24:00,
2013-04-02 15:29:00,44.4,21.6,29.78,WNW,292,2.2,2.3,40,0.00,CLR,,0.00,WeatherDisplay:10.37,2013-04-02 19:29:00,
2013-04-02 15:34:00,44.2,22.6,29.78,WNW,292,2.2,2.3,42,0.00,CLR,,0.00,WeatherDisplay:10.37,2013-04-02 19:34:00,
2013-04-02 15:39:00,44.4,22.7,29.77,WNW,292,2.2,2.3,42,0.00,CLR,,0.00,WeatherDisplay:10.37,2013-04-02 19:39:00,
2013-04-02 15:44:00,44.2,22.6,29.77,WNW,292,2.2,2.3,42,0.00,CLR,,0.00,WeatherDisplay:10.37,2013-04-02 19:44:00,
2013-04-02 15:49:00,44.1,22.4,29.77,WNW,292,2.2,2.3,42,0.00,CLR,,0.00,WeatherDisplay:10.37,2013-04-02 19:49:00,
2013-04-02 15:55:00,43.9,22.2,29.77,WNW,292,2.2,2.3,42,0.00,CLR,,0.00,WeatherDisplay:10.37,2013-04-02 19:55:00,
2013-04-02 16:00:00,43.3,22.3,29.77,WNW,292,2.2,2.3,43,0.00,CLR,,0.00,WeatherDisplay:10.37,2013-04-02 20:00:00,
2013-04-02 16:05:00,43.2,22.1,29.77,WNW,292,2.2,2.3,43,0.00,CLR,,0.00,WeatherDisplay:10.37,2013-04-02 20:05:00,
2013-04-02 16:10:00,43.5,22.5,29.77,WNW,292,2.2,2.3,43,0.00,CLR,,0.00,WeatherDisplay:10.37,2013-04-02 20:10:00,
2013-04-02 16:15:00,43.9,20.5,29.77,WNW,292,2.2,2.3,39,0.00,CLR,,0.00,WeatherDisplay:10.37,2013-04-02 20:15:00,
2013-04-02 16:20:00,43.5,18.9,29.77,WNW,292,2.2,2.3,37,0.00,CLR,,0.00,WeatherDisplay:10.37,2013-04-02 20:20:00,
2013-04-02 16:25:00,43.5,18.3,29.77,WNW,292,2.2,2.3,36,0.00,CLR,,0.00,WeatherDisplay:10.37,2013-04-02 20:25:00,
2013-04-02 16:30:00,44.1,17.4,29.77,WNW,292,2.2,2.3,34,0.00,CLR,,0.00,WeatherDisplay:10.37,2013-04-02 20:30:00,
2013-04-02 16:35:00,44.4,18.4,29.77,WNW,292,2.2,2.3,35,0.00,CLR,,0.00,WeatherDisplay:10.37,2013-04-02 20:35:00,
2013-04-02 16:40:00,44.2,16.2,29.77,SW,225,2.2,2.3,32,0.00,CLR,,0.00,WeatherDisplay:10.37,2013-04-02 20:40:00,
2013-04-02 16:45:00,43.7,17.1,29.77,WNW,292,1.8,2.3,34,0.00,CLR,,0.00,WeatherDisplay:10.37,2013-04-02 20:45:00,
2013-04-02 16:50:00,43.2,14.5,29.78,NW,315,8.1,8.1,31,0.00,CLR,,0.00,WeatherDisplay:10.37,2013-04-02 20:50:00,
2013-04-02 16:55:00,43.0,15.1,29.78,SSE,158,1.6,8.1,32,0.00,CLR,,0.00,WeatherDisplay:10.37,2013-04-02 20:55:00,
2013-04-02 17:00:00,43.0,14.4,29.78,West,270,4.5,4.6,31,0.00,CLR,,0.00,WeatherDisplay:10.37,2013-04-02 21:00:00,
2013-04-02 17:05:00,43.5,16.3,29.78,North,0,1.1,2.3,33,0.00,CLR,,0.00,WeatherDisplay:10.37,2013-04-02 21:05:00,
2013-04-02 17:10:00,43.5,16.3,29.78,West,270,1.1,1.1,33,0.00,CLR,,0.00,WeatherDisplay:10.37,2013-04-02 21:10:00,
2013-04-02 17:15:00,43.2,14.5,29.78,West,270,2.2,2.3,31,0.00,CLR,,0.00,WeatherDisplay:10.37,2013-04-02 21:15:00,
2013-04-02 17:20:00,43.0,14.4,29.79,WSW,248,3.3,3.3,31,0.00,CLR,,0.00,WeatherDisplay:10.37,2013-04-02 21:20:00,
2013-04-02 17:25:00,43.0,15.1,29.79,SW,225,0.9,2.3,32,0.00,CLR,,0.00,WeatherDisplay:10.37,2013-04-02 21:25:00,
2013-04-02 17:30:00,42.4,14.6,29.79,North,0,1.1,1.1,32,0.00,CLR,,0.00,WeatherDisplay:10.37,2013-04-02 21:30:00,
2013-04-02 17:35:00,42.4,13.9,29.79,NW,315,2.4,2.4,31,0.00,CLR,,0.00,WeatherDisplay:10.37,2013-04-02 21:35:00,
2013-04-02 17:40:00,42.1,15.0,29.80,North,0,2.0,2.3,33,0.00,CLR,,0.00,WeatherDisplay:10.37,2013-04-02 21:40:00,
2013-04-02 17:45:00,41.5,13.8,29.80,South,180,0.7,3.5,32,0.00,CLR,,0.00,WeatherDisplay:10.37,2013-04-02 21:45:00,
2013-04-02 17:51:00,41.2,14.2,29.80,WSW,248,3.3,3.5,33,0.00,CLR,,0.00,WeatherDisplay:10.37,2013-04-02 21:51:00,
2013-04-02 17:56:00,41.2,14.2,29.80,SW,225,1.8,3.5,33,0.00,CLR,,0.00,WeatherDisplay:10.37,2013-04-02 21:56:00,
2013-04-02 18:01:00,41.0,14.1,29.81,South,180,2.2,2.3,33,0.00,CLR,,0.00,WeatherDisplay:10.37,2013-04-02 22:01:00,
2013-04-02 18:06:00,40.8,13.2,29.81,North,0,0.5,1.1,32,0.00,CLR,,0.00,WeatherDisplay:10.37,2013-04-02 22:06:00,
2013-04-02 18:12:00,40.6,13.0,29.81,NW,315,1.1,3.5,32,0.00,CLR,,0.00,WeatherDisplay:10.37,2013-04-02 22:12:00,
2013-04-02 18:17:00,40.3,12.7,29.81,NW,315,1.8,3.5,32,0.00,CLR,,0.00,WeatherDisplay:10.37,2013-04-02 22:17:00,
2013-04-02 18:22:00,40.1,12.6,29.82,WNW,292,3.1,4.7,32,0.00,CLR,,0.00,WeatherDisplay:10.37,2013-04-02 22:22:00,
2013-04-02 18:27:00,40.1,12.6,29.82,WSW,248,0.9,2.6,32,0.00,CLR,,0.00,WeatherDisplay:10.37,2013-04-02 22:27:00,
2013-04-02 18:33:00,39.9,12.4,29.82,West,270,2.2,2.3,32,0.00,CLR,,0.00,WeatherDisplay:10.37,2013-04-02 22:33:00,
2013-04-02 18:38:00,39.6,12.8,29.82,SW,225,4.7,5.8,33,0.00,CLR,,0.00,WeatherDisplay:10.37,2013-04-02 22:38:00,
2013-04-02 18:43:00,39.2,11.8,29.83,WSW,248,1.1,2.3,32,0.00,CLR,,0.00,WeatherDisplay:10.37,2013-04-02 22:43:00,
2013-04-02 18:48:00,38.8,10.0,29.83,WSW,248,3.8,8.1,30,0.00,CLR,,0.00,WeatherDisplay:10.37,2013-04-02 22:48:00,
2013-04-02 18:53:00,38.7,10.6,29.83,West,270,1.8,2.3,31,0.00,CLR,,0.00,WeatherDisplay:10.37,2013-04-02 22:53:00,
2013-04-02 18:58:00,38.5,10.4,29.84,West,270,0.7,5.8,31,0.00,CLR,,0.00,WeatherDisplay:10.37,2013-04-02 22:58:00,
2013-04-02 19:03:00,38.3,11.0,29.84,WSW,248,2.4,2.4,32,0.00,CLR,,0.00,WeatherDisplay:10.37,2013-04-02 23:03:00,
2013-04-02 19:08:00,38.1,10.8,29.84,NW,315,1.8,2.3,32,0.00,CLR,,0.00,WeatherDisplay:10.37,2013-04-02 23:08:00,
2013-04-02 19:13:00,37.9,11.3,29.84,WSW,248,0.5,1.1,33,0.00,CLR,,0.00,WeatherDisplay:10.37,2013-04-02 23:13:00,
2013-04-02 19:18:00,37.8,11.2,29.85,West,270,0.7,2.3,33,0.00,CLR,,0.00,WeatherDisplay:10.37,2013-04-02 23:18:00,
2013-04-02 19:23:00,37.4,12.2,29.85,WSW,248,0.5,1.1,35,0.00,CLR,,0.00,WeatherDisplay:10.37,2013-04-02 23:23:00,
2013-04-02 19:28:00,37.0,11.9,29.85,North,0,0.9,2.3,35,0.00,CLR,,0.00,WeatherDisplay:10.37,2013-04-02 23:28:00,
2013-04-02 19:33:00,37.0,11.9,29.85,NW,315,0.7,2.2,35,0.00,CLR,,0.00,WeatherDisplay:10.37,2013-04-02 23:33:00,
2013-04-02 19:38:00,36.9,11.7,29.85,West,270,2.9,2.9,35,0.00,CLR,,0.00,WeatherDisplay:10.37,2013-04-02 23:38:00,
2013-04-02 19:43:00,36.7,12.2,29.86,NNW,338,0.5,1.1,36,0.00,CLR,,0.00,WeatherDisplay:10.37,2013-04-02 23:43:00,
2013-04-02 19:48:00,36.3,11.9,29.86,West,270,3.8,3.8,36,0.00,CLR,,0.00,WeatherDisplay:10.37,2013-04-02 23:48:00,
2013-04-02 19:53:00,36.3,11.9,29.86,WNW,292,3.1,3.1,36,0.00,CLR,,0.00,WeatherDisplay:10.37,2013-04-02 23:53:00,
2013-04-02 19:58:00,36.3,11.9,29.87,SSE,158,1.6,1.6,36,0.00,CLR,,0.00,WeatherDisplay:10.37,2013-04-02 23:58:00,
2013-04-02 20:03:00,36.1,12.3,29.87,WSW,248,0.5,2.3,37,0.00,CLR,,0.00,WeatherDisplay:10.37,2013-04-03 00:03:00,
2013-04-02 20:08:00,36.0,12.2,29.87,NNW,338,0.0,2.3,37,0.00,CLR,,0.00,WeatherDisplay:10.37,2013-04-03 00:08:00,
2013-04-02 20:13:00,35.8,12.0,29.87,NW,315,0.7,1.1,37,0.00,CLR,,0.00,WeatherDisplay:10.37,2013-04-03 00:13:00,
2013-04-02 20:18:00,35.6,11.9,29.88,WNW,292,0.5,2.3,37,0.00,CLR,,0.00,WeatherDisplay:10.37,2013-04-03 00:18:00,
2013-04-02 20:24:00,35.4,12.3,29.88,SW,225,0.2,1.1,38,0.00,CLR,,0.00,WeatherDisplay:10.37,2013-04-03 00:24:00,
2013-04-02 20:29:00,35.1,12.6,29.88,West,270,1.6,1.6,39,0.00,CLR,,0.00,WeatherDisplay:10.37,2013-04-03 00:29:00,
2013-04-02 20:34:00,34.9,12.4,29.89,NW,315,0.7,2.3,39,0.00,CLR,,0.00,WeatherDisplay:10.37,2013-04-03 00:34:00,
2013-04-02 20:39:00,34.7,12.2,29.89,WNW,292,0.9,1.1,39,0.00,CLR,,0.00,WeatherDisplay:10.37,2013-04-03 00:39:00,
2013-04-02 20:44:00,34.5,12.6,29.89,WNW,292,0.2,1.1,40,0.00,CLR,,0.00,WeatherDisplay:10.37,2013-04-03 00:44:00,
2013-04-02 20:49:00,34.3,12.5,29.90,WSW,248,1.6,4.6,40,0.00,CLR,,0.00,WeatherDisplay:10.37,2013-04-03 00:49:00,
2013-04-02 20:54:00,34.3,12.5,29.90,WNW,292,0.5,4.6,40,0.00,CLR,,0.00,WeatherDisplay:10.37,2013-04-03 00:54:00,
2013-04-02 20:59:00,34.3,12.5,29.90,NW,315,0.9,1.1,40,0.00,CLR,,0.00,WeatherDisplay:10.37,2013-04-03 00:59:00,
2013-04-02 21:04:00,34.5,12.6,29.90,West,270,0.2,0.2,40,0.00,CLR,,0.00,WeatherDisplay:10.37,2013-04-03 01:04:00,
2013-04-02 21:09:00,34.3,13.0,29.91,WNW,292,0.7,0.7,41,0.00,CLR,,0.00,WeatherDisplay:10.37,2013-04-03 01:09:00,
2013-04-02 21:14:00,34.2,12.9,29.91,WNW,292,0.9,1.1,41,0.00,CLR,,0.00,WeatherDisplay:10.37,2013-04-03 01:14:00,
2013-04-02 21:19:00,33.8,12.6,29.91,West,270,0.2,0.2,41,0.00,CLR,,0.00,WeatherDisplay:10.37,2013-04-03 01:19:00,
2013-04-02 21:24:00,33.6,12.4,29.91,WSW,248,0.2,0.2,41,0.00,CLR,,0.00,WeatherDisplay:10.37,2013-04-03 01:24:00,
2013-04-02 21:29:00,33.4,12.8,29.91,WSW,248,0.2,0.2,42,0.00,CLR,,0.00,WeatherDisplay:10.37,2013-04-03 01:29:00,
2013-04-02 21:34:00,33.3,13.1,29.91,WSW,248,0.2,0.2,43,0.00,CLR,,0.00,WeatherDisplay:10.37,2013-04-03 01:34:00,
2013-04-02 21:39:00,33.1,13.0,29.91,WSW,248,0.2,0.2,43,0.00,CLR,,0.00,WeatherDisplay:10.37,2013-04-03 01:39:00,
2013-04-02 21:44:00,33.1,13.0,29.91,WSW,248,0.2,0.2,43,0.00,CLR,,0.00,WeatherDisplay:10.37,2013-04-03 01:44:00,
2013-04-02 21:49:00,33.1,13.0,29.91,WSW,248,0.2,0.2,43,0.00,CLR,,0.00,WeatherDisplay:10.37,2013-04-03 01:49:00,
2013-04-02 21:54:00,32.9,12.8,29.91,WSW,248,0.2,0.2,43,0.00,CLR,,0.00,WeatherDisplay:10.37,2013-04-03 01:54:00,
2013-04-02 21:59:00,32.7,13.2,29.91,WSW,248,0.2,0.2,44,0.00,CLR,,0.00,WeatherDisplay:10.37,2013-04-03 01:59:00,
2013-04-02 22:04:00,32.4,12.8,29.91,WSW,248,0.2,0.2,44,0.00,CLR,,0.00,WeatherDisplay:10.37,2013-04-03 02:04:00,
2013-04-02 22:09:00,32.2,13.2,29.91,WSW,248,0.2,0.2,45,0.00,CLR,,0.00,WeatherDisplay:10.37,2013-04-03 02:09:00,
2013-04-02 22:14:00,32.0,13.0,29.91,WSW,248,0.2,0.2,45,0.00,CLR,,0.00,WeatherDisplay:10.37,2013-04-03 02:14:00,
2013-04-02 22:19:00,32.0,13.0,29.91,WSW,248,0.2,0.2,45,0.00,CLR,,0.00,WeatherDisplay:10.37,2013-04-03 02:19:00,
2013-04-02 22:25:00,31.8,13.4,29.91,WSW,248,0.2,0.2,46,0.00,CLR,,0.00,WeatherDisplay:10.37,2013-04-03 02:25:00,
2013-04-02 22:30:00,31.8,13.4,29.91,WSW,248,0.2,0.2,46,0.00,CLR,,0.00,WeatherDisplay:10.37,2013-04-03 02:30:00,
2013-04-02 22:35:00,31.5,13.0,29.91,WSW,248,0.2,0.2,46,0.00,CLR,,0.00,WeatherDisplay:10.37,2013-04-03 02:35:00,
2013-04-02 22:40:00,31.3,12.9,29.91,WSW,248,0.2,0.2,46,0.00,CLR,,0.00,WeatherDisplay:10.37,2013-04-03 02:40:00,
2013-04-02 22:45:00,31.1,12.7,29.91,WSW,248,0.2,0.2,46,0.00,CLR,,0.00,WeatherDisplay:10.37,2013-04-03 02:45:00,
2013-04-02 22:50:00,30.7,12.9,29.91,West,270,0.5,0.5,47,0.00,CLR,,0.00,WeatherDisplay:10.37,2013-04-03 02:50:00,
2013-04-02 22:55:00,30.6,12.7,29.91,West,270,0.0,0.0,47,0.00,CLR,,0.00,WeatherDisplay:10.37,2013-04-03 02:55:00,
2013-04-02 23:00:00,30.6,13.2,29.91,WSW,248,0.0,0.5,48,0.00,CLR,,0.00,WeatherDisplay:10.37,2013-04-03 03:00:00,
2013-04-02 23:06:00,30.7,13.3,29.91,West,270,0.0,1.1,48,0.00,CLR,,0.00,WeatherDisplay:10.37,2013-04-03 03:06:00,
2013-04-02 23:11:00,30.9,14.0,29.92,NW,315,0.0,0.5,49,0.00,CLR,,0.00,WeatherDisplay:10.37,2013-04-03 03:11:00,
2013-04-02 23:16:00,30.9,13.5,29.91,West,270,0.5,0.5,48,0.00,CLR,,0.00,WeatherDisplay:10.37,2013-04-03 03:16:00,
2013-04-02 23:21:00,31.1,14.6,29.91,SW,225,1.8,2.3,50,0.00,CLR,,0.00,WeatherDisplay:10.37,2013-04-03 03:21:00,
2013-04-02 23:27:00,31.1,14.6,29.91,WSW,248,0.5,3.5,50,0.00,CLR,,0.00,WeatherDisplay:10.37,2013-04-03 03:27:00,
2013-04-02 23:32:00,31.1,14.6,29.91,NW,315,0.2,0.2,50,0.00,CLR,,0.00,WeatherDisplay:10.37,2013-04-03 03:32:00,
2013-04-02 23:37:00,31.1,14.6,29.91,NW,315,0.5,1.1,50,0.00,CLR,,0.00,WeatherDisplay:10.37,2013-04-03 03:37:00,
2013-04-02 23:42:00,31.3,14.8,29.91,WSW,248,0.2,1.1,50,0.00,CLR,,0.00,WeatherDisplay:10.37,2013-04-03 03:42:00,
2013-04-02 23:47:00,31.5,14.9,29.91,West,270,0.7,2.0,50,0.00,CLR,,0.00,WeatherDisplay:10.37,2013-04-03 03:47:00,
2013-04-02 23:52:00,31.5,14.9,29.91,West,270,0.2,0.2,50,0.00,CLR,,0.00,WeatherDisplay:10.37,2013-04-03 03:52:00,
2013-04-02 23:57:00,31.3,14.8,29.91,North,0,2.4,2.4,50,0.00,CLR,,0.00,WeatherDisplay:10.37,2013-04-03 03:57:00,